Stations météo

réclame
Mon MeteoGroup
Chateau Chinon, France (7270): Température de l'air & dewpoint: 12.08.2019 03:00:00 - 18.08.2019 03:00:00 (CEST)Chateau Chinon, France (7270): Vitesse du vent & gusts: 12.08.2019 03:00:00 - 18.08.2019 03:00:00 (CEST)Chateau Chinon, France (7270): Direction du vent: 12.08.2019 03:00:00 - 18.08.2019 03:00:00 (CEST)Chateau Chinon, France (7270): Quantités de précipitations: 12.08.2019 03:00:00 - 18.08.2019 03:00:00 (CEST)
Date & Time tt [°C] td [°C] ff [km/h] ff [knt] fx [km/h] fx [knt] dd rr [mm]
18.08.2019 03:00:00 - - - - - - - -
18.08.2019 02:00:00 17,2 16,1 4 2 11 6 SSW -
18.08.2019 01:00:00 17,6 15,0 2 1 13 7 NE 0,0
18.08.2019 00:00:00 19,0 14,9 2 1 13 7 N 0,0
17.08.2019 23:00:00 20,1 14,9 4 2 16 9 N 0,0
17.08.2019 22:00:00 20,8 14,4 4 2 15 8 NE 0,0
17.08.2019 21:00:00 21,5 14,2 4 2 16 9 NE 0,0
17.08.2019 20:00:00 23,6 14,0 4 2 18 10 NE -
17.08.2019 19:00:00 25,8 14,0 4 2 21 11 NNW 0,0
17.08.2019 18:00:00 24,7 13,6 4 2 18 10 NW 0,0
17.08.2019 17:00:00 25,8 13,6 4 2 37 20 NNW 0,0
17.08.2019 16:00:00 24,9 12,1 11 6 41 22 SW 0,0
17.08.2019 15:00:00 23,3 11,7 13 7 39 21 SW 0,0
17.08.2019 14:00:00 22,1 12,6 13 7 37 20 SW -
17.08.2019 13:00:00 21,2 13,6 8 4 34 18 SSW 0,0
17.08.2019 12:00:00 20,0 12,7 11 6 35 19 SW 0,0
17.08.2019 11:00:00 19,2 13,1 8 4 26 14 SW 0,0
17.08.2019 10:00:00 17,4 12,5 4 2 18 10 WSW 0,0
17.08.2019 09:00:00 16,5 12,3 4 2 18 10 WSW 0,0
17.08.2019 08:00:00 15,5 11,7 5 3 21 11 WSW -
17.08.2019 07:00:00 15,2 11,6 4 2 26 14 WSW 0,0
17.08.2019 06:00:00 16,0 11,6 5 3 26 14 WSW 0,0
17.08.2019 05:00:00 16,7 11,4 5 3 26 14 WSW 0,0
17.08.2019 04:00:00 16,8 11,1 4 2 16 9 WNW 0,0
17.08.2019 03:00:00 17,4 11,0 4 2 18 10 W 0,0
17.08.2019 02:00:00 18,1 10,7 4 2 28 15 W -
17.08.2019 01:00:00 19,4 11,2 8 4 39 21 WSW 0,0
17.08.2019 00:00:00 19,7 10,9 16 9 34 18 SSW 0,0
16.08.2019 23:00:00 18,8 10,4 5 3 15 8 SSW 0,0
16.08.2019 22:00:00 19,4 9,8 4 2 16 9 S 0,0
16.08.2019 21:00:00 19,5 9,7 4 2 21 11 S 0,0
16.08.2019 20:00:00 20,5 10,0 5 3 22 12 SW -
16.08.2019 19:00:00 23,6 9,9 8 4 22 12 SW 0,0
16.08.2019 18:00:00 23,8 9,4 9 5 22 12 SSW 0,0
16.08.2019 17:00:00 24,0 10,6 8 4 22 12 SSW 0,0
16.08.2019 16:00:00 23,6 10,6 8 4 21 11 SSW 0,0
16.08.2019 15:00:00 23,2 10,9 8 4 21 11 S 0,0
16.08.2019 14:00:00 21,8 10,0 8 4 22 12 SSW -
16.08.2019 13:00:00 22,0 12,3 5 3 22 12 SW 0,0
16.08.2019 12:00:00 20,9 12,8 4 2 13 7 WNW 0,0
16.08.2019 11:00:00 19,1 12,4 4 2 11 6 SW 0,0
16.08.2019 10:00:00 18,8 12,1 4 2 9 5 ESE 0,0
16.08.2019 09:00:00 17,5 12,0 4 2 9 5 ESE 0,0
16.08.2019 08:00:00 13,7 10,5 5 3 13 7 ESE -
16.08.2019 07:00:00 11,2 10,1 4 2 9 5 E 0,0
16.08.2019 06:00:00 11,2 9,9 4 2 11 6 ESE 0,0
16.08.2019 05:00:00 11,6 10,0 2 1 9 5 ESE 0,0
16.08.2019 04:00:00 11,5 9,7 2 1 9 5 WNW 0,0
16.08.2019 03:00:00 11,1 9,8 0 0 15 8 N 0,0
16.08.2019 02:00:00 11,5 9,6 2 1 8 4 N -
16.08.2019 01:00:00 13,2 9,8 2 1 13 7 N 0,0
16.08.2019 00:00:00 13,0 9,6 2 1 11 6 N 0,0
15.08.2019 23:00:00 14,3 9,9 2 1 9 5 NNE 0,0
15.08.2019 22:00:00 13,8 9,8 2 1 9 5 NE 0,0
15.08.2019 21:00:00 15,3 10,5 2 1 13 7 ENE 0,0
15.08.2019 20:00:00 16,9 9,6 4 2 18 10 NNE -
15.08.2019 19:00:00 20,2 11,1 4 2 16 9 NE 0,0
15.08.2019 18:00:00 19,4 10,7 4 2 21 11 NNE 0,0
15.08.2019 17:00:00 19,1 13,3 4 2 21 11 N 0,0
15.08.2019 16:00:00 16,5 12,6 4 2 18 10 NE 0,0
15.08.2019 15:00:00 16,4 12,9 0 0 28 15 N 0,0
15.08.2019 14:00:00 16,4 12,2 4 2 22 12 NNW -
15.08.2019 13:00:00 16,8 12,7 4 2 26 14 NE 0,0
15.08.2019 12:00:00 16,7 14,7 4 2 21 11 NNE 0,0
15.08.2019 11:00:00 14,9 14,4 4 2 24 13 NNE 0,0
15.08.2019 10:00:00 14,2 14,0 5 3 26 14 NNE 2,0
15.08.2019 09:00:00 14,0 13,8 4 2 21 11 ENE 0,2
15.08.2019 08:00:00 13,8 13,6 4 2 28 15 W -
15.08.2019 07:00:00 13,6 13,1 4 2 24 13 ENE 0,8
15.08.2019 06:00:00 15,9 10,9 5 3 22 12 WSW 0,0
15.08.2019 05:00:00 16,2 10,3 4 2 24 13 SW 0,0
15.08.2019 04:00:00 16,1 10,8 5 3 24 13 NNW 0,0
15.08.2019 03:00:00 16,6 9,5 4 2 24 13 NE 0,0
15.08.2019 02:00:00 17,0 9,2 4 2 22 12 N -
15.08.2019 01:00:00 16,3 8,8 2 1 15 8 NNW 0,0
15.08.2019 00:00:00 16,9 8,6 2 1 15 8 N 0,0
14.08.2019 23:00:00 18,2 7,6 4 2 24 13 NW 0,0
14.08.2019 22:00:00 18,0 6,8 8 4 22 12 SW 0,0
14.08.2019 21:00:00 18,0 6,8 4 2 18 10 SW 0,0
14.08.2019 20:00:00 20,1 7,1 4 2 21 11 NW -
14.08.2019 19:00:00 23,3 7,4 4 2 21 11 W 0,0
14.08.2019 18:00:00 24,0 7,2 4 2 18 10 WNW 0,0
14.08.2019 17:00:00 23,5 6,7 5 3 24 13 SW 0,0
14.08.2019 16:00:00 23,1 6,8 8 4 29 16 SSW 0,0
14.08.2019 15:00:00 - - - - - - - -
14.08.2019 14:00:00 21,8 7,2 5 3 28 15 SE -
14.08.2019 13:00:00 21,6 7,0 4 2 21 11 WSW 0,0
14.08.2019 12:00:00 21,0 7,6 4 2 16 9 W 0,0
14.08.2019 11:00:00 19,6 8,0 2 1 13 7 W 0,0
14.08.2019 10:00:00 17,6 7,3 4 2 9 5 SW 0,0
14.08.2019 09:00:00 16,2 7,4 2 1 9 5 SSW 0,0
14.08.2019 08:00:00 13,6 6,5 4 2 13 7 SSE -
14.08.2019 07:00:00 11,2 5,7 4 2 8 4 SW 0,0
14.08.2019 06:00:00 12,3 5,7 5 3 9 5 SSE 0,0
14.08.2019 05:00:00 12,4 5,8 4 2 11 6 SSE 0,0
14.08.2019 04:00:00 12,3 5,7 5 3 9 5 SSE 0,0
14.08.2019 03:00:00 11,0 5,7 5 3 9 5 SSE 0,0
14.08.2019 02:00:00 11,3 5,6 0 0 4 2 N -
14.08.2019 01:00:00 11,7 5,3 0 0 4 2 N 0,0
14.08.2019 00:00:00 12,4 5,5 2 1 5 3 SE 0,0
13.08.2019 23:00:00 12,7 5,6 4 2 8 4 SE 0,0
13.08.2019 22:00:00 13,5 5,4 2 1 13 7 NNE 0,0
13.08.2019 21:00:00 14,4 6,0 4 2 13 7 WNW 0,0
13.08.2019 20:00:00 16,8 6,0 4 2 18 10 NNW -
13.08.2019 19:00:00 18,0 6,8 4 2 16 9 NNW 0,0
13.08.2019 18:00:00 18,9 6,4 2 1 16 9 WNW 0,0
13.08.2019 17:00:00 20,1 6,8 4 2 18 10 N 0,0
13.08.2019 16:00:00 20,6 7,2 4 2 15 8 WNW 0,0
13.08.2019 15:00:00 20,9 8,2 4 2 21 11 WNW 0,0
13.08.2019 14:00:00 19,8 7,2 4 2 16 9 W -
13.08.2019 13:00:00 16,8 9,0 4 2 18 10 NNW 0,0
13.08.2019 12:00:00 17,6 10,0 4 2 18 10 NNW 0,0
13.08.2019 11:00:00 17,5 9,1 4 2 15 8 W 0,0
13.08.2019 10:00:00 14,7 9,1 2 1 9 5 WNW 0,0
13.08.2019 09:00:00 12,7 10,6 4 2 8 4 NNE 0,0
13.08.2019 08:00:00 11,3 11,1 2 1 8 4 SE -
13.08.2019 07:00:00 9,3 9,2 0 0 8 4 N 0,0
13.08.2019 06:00:00 9,4 9,3 4 2 11 6 SSW 0,0
13.08.2019 05:00:00 9,1 8,8 2 1 9 5 WNW 0,0
13.08.2019 04:00:00 9,3 8,7 2 1 15 8 WNW 0,0
13.08.2019 03:00:00 9,7 8,9 4 2 8 4 WNW 0,0
13.08.2019 02:00:00 10,7 9,6 2 1 9 5 WNW -
13.08.2019 01:00:00 10,4 9,3 2 1 11 6 NW 0,0
13.08.2019 00:00:00 12,2 9,9 0 0 21 11 N 0,0
12.08.2019 23:00:00 12,4 9,9 0 0 8 4 N 0,0
12.08.2019 22:00:00 13,1 9,7 0 0 9 5 N 0,0
12.08.2019 21:00:00 14,2 9,4 0 0 21 11 N 0,0
12.08.2019 20:00:00 16,1 10,6 4 2 24 13 N -
12.08.2019 19:00:00 18,4 10,7 4 2 26 14 NE 0,0
12.08.2019 18:00:00 19,6 11,9 4 2 22 12 NE 0,0
12.08.2019 17:00:00 19,3 13,7 4 2 29 16 NNE 0,0
12.08.2019 16:00:00 17,6 13,9 2 1 34 18 WSW 7,0
12.08.2019 15:00:00 20,0 11,2 8 4 29 16 SSW 0,0
12.08.2019 14:00:00 19,5 11,5 4 2 24 13 NW -
12.08.2019 13:00:00 18,9 11,9 4 2 21 11 N 0,0
12.08.2019 12:00:00 18,0 11,8 4 2 22 12 W 0,0
12.08.2019 11:00:00 17,0 12,9 4 2 11 6 SW 0,0
12.08.2019 10:00:00 14,1 12,1 4 2 9 5 SW 0,0
12.08.2019 09:00:00 13,3 12,4 2 1 9 5 SW 0,0
12.08.2019 08:00:00 11,9 11,3 4 2 11 6 SW -
12.08.2019 07:00:00 11,4 10,9 4 2 13 7 S 0,0
12.08.2019 06:00:00 11,6 10,8 5 3 16 9 SW 0,0
12.08.2019 05:00:00 10,7 9,6 4 2 16 9 S 0,0
12.08.2019 04:00:00 10,7 9,9 2 1 11 6 WSW 0,0
12.08.2019 03:00:00 10,1 9,2 4 2 8 4 S 0,0

tt = Température de l'air
td = dewpoint
ff = Vitesse du vent
fx = gusts
dd = Direction du vent
rr = Quantités de précipitations

stations d'obs. à proximité